createdAt,value
2022-08-30T00:02:23.289Z,5.80
2022-08-30T00:04:54.235Z,5.90
2022-08-30T00:07:22.282Z,5.88
2022-08-30T00:09:49.737Z,5.28
2022-08-30T00:12:17.312Z,5.28
2022-08-30T00:14:44.837Z,5.60
2022-08-30T00:17:12.513Z,5.85
2022-08-30T00:19:40.016Z,6.03
2022-08-30T00:22:07.558Z,5.65
2022-08-30T00:24:35.012Z,6.15
2022-08-30T00:27:02.436Z,5.70
2022-08-30T00:29:30.186Z,6.20
2022-08-30T00:31:57.648Z,5.60
2022-08-30T00:34:25.093Z,5.97
2022-08-30T00:36:52.520Z,6.20
2022-08-30T00:39:20.568Z,5.97
2022-08-30T00:41:48.626Z,5.93
2022-08-30T00:44:16.381Z,6.55
2022-08-30T00:46:43.928Z,6.13
2022-08-30T00:49:13.433Z,5.75
2022-08-30T00:51:41.807Z,6.45
2022-08-30T00:54:10.043Z,6.40
2022-08-30T00:56:37.833Z,6.00
2022-08-30T00:59:07.818Z,7.38
2022-08-30T01:01:37.469Z,6.03
2022-08-30T01:04:09.009Z,6.27
2022-08-30T01:06:39.801Z,5.85
2022-08-30T01:09:08.987Z,6.63
2022-08-30T01:11:39.523Z,6.60
2022-08-30T01:14:09.284Z,6.43
2022-08-30T01:16:41.447Z,6.93
2022-08-30T01:19:24.630Z,6.53
2022-08-30T01:22:05.369Z,6.97
2022-08-30T01:24:34.511Z,7.03
2022-08-30T01:27:02.084Z,7.07
2022-08-30T01:29:29.670Z,7.65
2022-08-30T01:31:57.173Z,7.72
2022-08-30T01:34:25.600Z,7.38
2022-08-30T01:36:53.222Z,7.03
2022-08-30T01:39:21.021Z,7.10
2022-08-30T01:41:48.471Z,7.72
2022-08-30T01:44:16.030Z,7.13
2022-08-30T01:46:47.565Z,7.28
2022-08-30T01:49:27.479Z,7.47
2022-08-30T01:52:00.647Z,7.80
2022-08-30T01:54:33.243Z,7.90
2022-08-30T01:57:10.092Z,7.43
2022-08-30T01:59:40.337Z,7.78
2022-08-30T02:02:08.648Z,7.30
2022-08-30T02:04:36.829Z,7.32
2022-08-30T02:07:05.405Z,7.72
2022-08-30T02:09:33.439Z,7.72
2022-08-30T02:12:01.351Z,7.43
2022-08-30T02:14:28.816Z,7.30
2022-08-30T02:16:56.366Z,7.90
2022-08-30T02:19:23.943Z,7.50
2022-08-30T02:21:51.541Z,7.95
2022-08-30T02:24:19.032Z,8.88
2022-08-30T02:26:46.551Z,8.57
2022-08-30T02:29:14.342Z,7.70
2022-08-30T02:31:41.800Z,7.20
2022-08-30T02:34:09.353Z,8.20
2022-08-30T02:36:36.897Z,8.95
2022-08-30T02:39:04.387Z,8.60
2022-08-30T02:41:31.910Z,8.57
2022-08-30T02:44:00.385Z,8.73
2022-08-30T02:46:31.085Z,8.95
2022-08-30T02:49:13.083Z,8.20
2022-08-30T02:51:49.507Z,9.25
2022-08-30T02:54:20.040Z,8.63
2022-08-30T02:56:48.967Z,9.25
2022-08-30T02:59:18.268Z,9.10
2022-08-30T03:01:45.939Z,8.93
2022-08-30T03:04:13.489Z,9.75
2022-08-30T03:06:40.955Z,9.85
2022-08-30T03:09:08.460Z,9.25
2022-08-30T03:11:35.958Z,10.07
2022-08-30T03:14:03.922Z,9.43
2022-08-30T03:16:31.499Z,10.07
2022-08-30T03:18:58.992Z,10.15
2022-08-30T03:21:26.534Z,9.40
2022-08-30T03:23:53.942Z,9.98
2022-08-30T03:26:21.427Z,10.65
2022-08-30T03:28:48.856Z,10.48
2022-08-30T03:31:16.542Z,10.65
2022-08-30T03:33:44.041Z,10.82
2022-08-30T03:36:12.072Z,10.82
2022-08-30T03:38:40.059Z,10.90
2022-08-30T03:41:07.698Z,11.52
2022-08-30T03:43:36.821Z,11.60
2022-08-30T03:46:05.687Z,11.73
2022-08-30T03:48:33.132Z,12.32
2022-08-30T03:51:00.609Z,12.48
2022-08-30T03:53:28.199Z,11.95
2022-08-30T03:55:55.804Z,12.15
2022-08-30T03:58:25.351Z,12.75
2022-08-30T04:00:52.822Z,12.80
2022-08-30T04:03:25.732Z,12.73
2022-08-30T04:05:55.893Z,13.13
2022-08-30T04:08:25.539Z,12.25
2022-08-30T04:10:55.498Z,13.07
2022-08-30T04:13:25.135Z,13.05
2022-08-30T04:15:52.624Z,12.63
2022-08-30T04:18:20.155Z,13.82
2022-08-30T04:20:48.921Z,14.05
2022-08-30T04:23:16.815Z,13.25
2022-08-30T04:25:45.627Z,14.23
2022-08-30T04:28:13.689Z,13.63
2022-08-30T04:30:44.829Z,14.10
2022-08-30T04:33:15.136Z,14.82
2022-08-30T04:35:49.300Z,14.13
2022-08-30T04:38:18.260Z,14.25
2022-08-30T04:40:50.142Z,14.57
2022-08-30T04:43:17.850Z,13.32
2022-08-30T04:45:46.592Z,14.80
2022-08-30T04:48:14.070Z,14.43
2022-08-30T04:50:43.415Z,15.05
2022-08-30T04:53:16.860Z,13.07
2022-08-30T04:55:44.570Z,14.27
2022-08-30T04:58:12.398Z,14.93
2022-08-30T05:00:42.164Z,14.85
2022-08-30T05:03:10.053Z,15.07
2022-08-30T05:05:40.332Z,14.73
2022-08-30T05:08:15.483Z,15.20
2022-08-30T05:10:49.734Z,15.00
2022-08-30T05:13:21.308Z,15.05
2022-08-30T05:16:07.058Z,14.77
2022-08-30T05:18:36.803Z,14.60
2022-08-30T05:21:14.509Z,15.07
2022-08-30T05:23:44.106Z,14.85
2022-08-30T05:26:22.742Z,14.23
2022-08-30T05:28:53.212Z,16.48
2022-08-30T05:31:25.298Z,15.10
2022-08-30T05:33:54.882Z,15.48
2022-08-30T05:36:27.880Z,14.32
2022-08-30T05:38:56.080Z,15.27
2022-08-30T05:41:26.655Z,15.52
2022-08-30T05:43:57.390Z,15.05
2022-08-30T05:46:29.415Z,14.35
2022-08-30T05:48:57.883Z,14.50
2022-08-30T05:51:28.775Z,14.68
2022-08-30T05:53:59.314Z,14.85
2022-08-30T05:56:39.901Z,13.10
2022-08-30T05:59:08.641Z,14.07
2022-08-30T06:01:43.359Z,13.82
2022-08-30T06:04:12.681Z,13.52
2022-08-30T06:06:43.484Z,13.20
2022-08-30T06:09:14.273Z,13.30
2022-08-30T06:11:42.847Z,12.73
2022-08-30T06:14:11.342Z,12.70
2022-08-30T06:16:40.465Z,12.85
2022-08-30T06:19:10.950Z,11.93
2022-08-30T06:21:40.667Z,11.52
2022-08-30T06:24:11.320Z,11.48
2022-08-30T06:26:43.549Z,11.33
2022-08-30T06:29:15.953Z,11.63
2022-08-30T06:31:43.595Z,11.82
2022-08-30T06:34:11.210Z,11.43
2022-08-30T06:36:39.464Z,11.20
2022-08-30T06:39:08.232Z,11.68
2022-08-30T06:41:38.847Z,11.23
2022-08-30T06:44:17.652Z,10.40
2022-08-30T06:46:45.377Z,10.65
2022-08-30T06:49:12.942Z,9.52
2022-08-30T06:51:40.682Z,9.48
2022-08-30T06:54:12.298Z,10.05
2022-08-30T06:56:55.303Z,10.00
2022-08-30T06:59:26.909Z,9.10
2022-08-30T07:01:56.110Z,9.25
2022-08-30T07:04:24.351Z,8.82
2022-08-30T07:06:53.193Z,9.13
2022-08-30T07:09:23.057Z,8.65
2022-08-30T07:11:52.437Z,8.07
2022-08-30T07:14:21.511Z,7.75
2022-08-30T07:16:50.965Z,7.90
2022-08-30T07:19:21.127Z,7.03
2022-08-30T07:21:49.728Z,7.50
2022-08-30T07:24:19.762Z,6.90
2022-08-30T07:26:51.721Z,5.68
2022-08-30T07:29:21.273Z,5.40
2022-08-30T07:31:49.372Z,4.95
2022-08-30T07:34:19.289Z,4.88
2022-08-30T07:36:48.051Z,4.55
2022-08-30T07:39:15.619Z,4.68
2022-08-30T07:41:44.275Z,4.15
2022-08-30T07:44:12.281Z,4.40
2022-08-30T07:46:41.981Z,4.25
2022-08-30T07:49:11.833Z,3.97
2022-08-30T07:51:41.046Z,4.38
2022-08-30T07:54:09.021Z,4.13
2022-08-30T07:56:36.588Z,3.72
2022-08-30T07:59:04.804Z,3.25
2022-08-30T08:01:32.890Z,3.13
2022-08-30T08:04:00.486Z,3.15
2022-08-30T08:06:35.023Z,3.30
2022-08-30T08:09:04.004Z,3.20
2022-08-30T08:11:34.159Z,2.65
2022-08-30T08:14:04.272Z,2.20
2022-08-30T08:16:35.474Z,2.30
2022-08-30T08:19:06.885Z,2.25
2022-08-30T08:21:35.948Z,2.20
2022-08-30T08:24:04.812Z,2.28
2022-08-30T08:26:36.662Z,2.25
2022-08-30T08:29:07.233Z,2.65
2022-08-30T08:31:34.829Z,2.40
2022-08-30T08:34:05.774Z,2.17
2022-08-30T08:36:36.050Z,2.65
2022-08-30T08:39:06.378Z,2.45
2022-08-30T08:41:55.405Z,2.33
2022-08-30T08:44:54.788Z,1.77
2022-08-30T08:47:40.286Z,2.25
2022-08-30T08:50:20.027Z,2.13
2022-08-30T08:53:24.989Z,2.30
2022-08-30T08:55:58.361Z,1.60
2022-08-30T08:58:41.345Z,1.77
2022-08-30T09:01:13.258Z,1.92
2022-08-30T09:03:42.548Z,2.00
2022-08-30T09:06:45.353Z,2.05
2022-08-30T09:09:14.225Z,1.70
2022-08-30T09:11:44.409Z,1.75
2022-08-30T09:14:24.929Z,1.80
2022-08-30T09:17:11.357Z,2.15
2022-08-30T09:19:58.691Z,1.73
2022-08-30T09:22:32.588Z,1.50
2022-08-30T09:25:22.264Z,2.03
2022-08-30T09:27:54.455Z,1.60
2022-08-30T09:30:28.898Z,1.60
2022-08-30T09:33:03.070Z,2.03
2022-08-30T09:35:49.485Z,2.20
2022-08-30T09:38:21.676Z,1.60
2022-08-30T09:40:53.497Z,1.80
2022-08-30T09:43:29.636Z,1.75
2022-08-30T09:46:00.252Z,2.10
2022-08-30T09:48:35.334Z,1.70
2022-08-30T09:51:13.114Z,1.38
2022-08-30T09:54:19.167Z,1.73
2022-08-30T09:57:22.000Z,1.58
2022-08-30T10:00:14.844Z,1.40
2022-08-30T10:03:12.666Z,1.70
2022-08-30T10:05:58.591Z,1.83
2022-08-30T10:08:43.927Z,1.98
2022-08-30T10:11:21.416Z,1.38
2022-08-30T10:14:12.470Z,1.33
2022-08-30T10:17:18.698Z,1.50
2022-08-30T10:20:42.557Z,1.60
2022-08-30T10:23:18.782Z,1.67
2022-08-30T10:26:04.129Z,1.60
2022-08-30T10:28:44.363Z,1.50
2022-08-30T10:31:44.311Z,1.48
2022-08-30T10:34:24.756Z,1.65
2022-08-30T10:37:16.713Z,1.52
2022-08-30T10:40:22.407Z,1.40
2022-08-30T10:42:53.123Z,1.80
2022-08-30T10:45:22.722Z,1.83
2022-08-30T10:48:06.664Z,1.65
2022-08-30T10:50:53.547Z,2.00
2022-08-30T10:53:39.153Z,1.70
2022-08-30T10:56:11.466Z,1.67
2022-08-30T10:58:42.987Z,1.48
2022-08-30T11:01:46.590Z,1.70
2022-08-30T11:05:08.052Z,1.50
2022-08-30T11:08:02.921Z,1.60
2022-08-30T11:11:18.605Z,1.50
2022-08-30T11:13:50.989Z,1.63
2022-08-30T11:16:37.877Z,1.70
2022-08-30T11:19:36.292Z,1.70
2022-08-30T11:22:38.804Z,1.65
2022-08-30T11:25:13.118Z,1.48
2022-08-30T11:28:08.964Z,1.70
2022-08-30T11:30:39.624Z,1.38
2022-08-30T11:33:11.491Z,1.73
2022-08-30T11:35:48.048Z,1.67
2022-08-30T11:38:29.250Z,1.92
2022-08-30T11:41:00.245Z,1.33
2022-08-30T11:43:43.831Z,1.70
2022-08-30T11:46:29.817Z,1.70
2022-08-30T11:49:15.608Z,2.08
2022-08-30T11:52:34.379Z,1.80
2022-08-30T11:55:39.744Z,1.40
2022-08-30T11:58:27.989Z,1.35
2022-08-30T12:01:40.896Z,1.35
2022-08-30T12:04:16.433Z,1.42
2022-08-30T12:06:48.462Z,1.77
2022-08-30T12:09:24.824Z,1.63
2022-08-30T12:12:05.491Z,1.33
2022-08-30T12:14:44.797Z,1.47
2022-08-30T12:17:41.903Z,1.30
2022-08-30T12:20:38.542Z,1.60
2022-08-30T12:23:38.220Z,1.40
2022-08-30T12:26:25.066Z,1.33
2022-08-30T12:29:06.798Z,1.80
2022-08-30T12:31:51.364Z,1.63
2022-08-30T12:34:32.079Z,1.40
2022-08-30T12:37:08.411Z,1.27
2022-08-30T12:39:44.375Z,1.55
2022-08-30T12:42:31.315Z,1.50
2022-08-30T12:45:07.057Z,1.55
2022-08-30T12:47:52.959Z,1.25
2022-08-30T12:50:28.055Z,1.45
2022-08-30T12:53:01.871Z,1.50
2022-08-30T12:55:36.564Z,1.30
2022-08-30T12:58:10.486Z,1.13
2022-08-30T13:00:41.040Z,1.40
2022-08-30T13:03:36.762Z,1.35
2022-08-30T13:06:10.069Z,1.30
2022-08-30T13:08:51.641Z,1.52
2022-08-30T13:11:22.272Z,1.48
2022-08-30T13:20:26.407Z,1.40
2022-08-30T13:23:09.449Z,1.60
2022-08-30T13:25:40.137Z,1.67
2022-08-30T13:28:07.959Z,1.50
2022-08-30T13:30:36.099Z,1.80
2022-08-30T13:33:03.615Z,1.35
2022-08-30T13:35:32.380Z,1.60
2022-08-30T13:38:02.522Z,1.30
2022-08-30T13:40:30.431Z,1.33
2022-08-30T13:42:58.679Z,1.50
2022-08-30T13:45:42.574Z,1.00
2022-08-30T13:48:12.443Z,1.40
2022-08-30T13:50:40.880Z,1.48
2022-08-30T13:53:11.581Z,1.48
2022-08-30T13:55:41.667Z,1.30
2022-08-30T13:58:10.692Z,1.40
2022-08-30T14:00:41.418Z,1.55
2022-08-30T14:03:08.983Z,1.30
2022-08-30T14:05:49.599Z,1.30
2022-08-30T14:08:45.906Z,1.30
2022-08-30T14:11:18.960Z,1.30
2022-08-30T14:16:41.946Z,1.77
2022-08-30T14:19:12.424Z,1.25
2022-08-30T14:21:40.876Z,1.33
2022-08-30T14:24:08.889Z,1.67
2022-08-30T14:26:45.869Z,1.60
2022-08-30T14:29:26.004Z,1.50
2022-08-30T14:31:53.782Z,1.48
2022-08-30T14:34:22.961Z,1.30
2022-08-30T14:36:50.617Z,1.55
2022-08-30T14:39:21.362Z,1.48
2022-08-30T14:41:53.948Z,1.55
2022-08-30T14:44:24.574Z,1.50
2022-08-30T14:46:53.206Z,1.80
2022-08-30T14:49:21.276Z,1.48
2022-08-30T14:51:49.244Z,1.88
2022-08-30T14:54:21.923Z,1.45
2022-08-30T14:56:49.411Z,1.65
2022-08-30T14:59:18.333Z,1.35
2022-08-30T15:01:46.911Z,1.20
2022-08-30T15:04:15.827Z,1.73
2022-08-30T15:06:47.138Z,1.60
2022-08-30T15:09:23.371Z,1.40
2022-08-30T15:11:54.962Z,1.48
2022-08-30T15:14:26.198Z,1.50
2022-08-30T15:16:58.951Z,1.48
2022-08-30T15:19:26.759Z,1.30
2022-08-30T15:21:55.461Z,1.40
2022-08-30T15:24:29.891Z,1.83
2022-08-30T15:27:00.533Z,1.60
2022-08-30T15:29:30.433Z,1.50
2022-08-30T15:32:01.437Z,1.35
2022-08-30T15:34:30.984Z,2.00
2022-08-30T15:39:49.678Z,1.60
2022-08-30T15:42:21.203Z,2.40
2022-08-30T15:44:53.453Z,3.10
2022-08-30T15:47:23.264Z,1.60
2022-08-30T15:50:03.143Z,1.70
2022-08-30T15:52:32.013Z,2.53
2022-08-30T15:55:00.423Z,1.52
2022-08-30T15:57:27.892Z,4.80
2022-08-30T15:59:55.877Z,1.88
2022-08-30T16:02:27.506Z,1.98
2022-08-30T16:04:55.387Z,2.30
2022-08-30T16:07:23.018Z,1.38
2022-08-30T16:09:50.662Z,2.33
2022-08-30T16:12:23.606Z,1.83
2022-08-30T16:14:51.918Z,1.75
2022-08-30T16:17:19.591Z,1.80
2022-08-30T16:19:47.037Z,1.52
2022-08-30T16:22:22.373Z,1.25
2022-08-30T16:24:50.013Z,1.38
2022-08-30T16:27:17.761Z,1.50
2022-08-30T16:29:45.269Z,1.48
2022-08-30T16:32:12.750Z,1.50
2022-08-30T16:34:46.194Z,1.40
2022-08-30T16:37:13.661Z,1.50
2022-08-30T16:39:41.158Z,1.40
2022-08-30T16:42:15.059Z,1.63
2022-08-30T16:44:49.974Z,1.40
2022-08-30T16:47:17.737Z,1.60
2022-08-30T16:49:45.773Z,1.40
2022-08-30T16:52:13.191Z,1.45
2022-08-30T16:54:40.627Z,1.45
2022-08-30T16:57:08.189Z,1.45
2022-08-30T16:59:37.906Z,1.48
2022-08-30T17:02:05.476Z,1.70
2022-08-30T17:04:33.718Z,1.75
2022-08-30T17:07:01.213Z,1.50
2022-08-30T17:09:28.639Z,1.67
2022-08-30T17:11:56.312Z,1.50
2022-08-30T17:14:28.234Z,1.75
2022-08-30T17:17:00.675Z,1.50
2022-08-30T17:19:29.945Z,1.92
2022-08-30T17:21:58.697Z,1.60
2022-08-30T17:24:27.296Z,1.40
2022-08-30T17:26:55.343Z,1.40
2022-08-30T17:29:22.847Z,1.40
2022-08-30T17:31:50.972Z,1.40
2022-08-30T17:34:21.823Z,1.23
2022-08-30T17:36:52.510Z,1.27
2022-08-30T17:39:23.457Z,1.70
2022-08-30T17:41:51.679Z,1.40
2022-08-30T17:44:25.909Z,1.40
2022-08-30T17:46:54.001Z,1.60
2022-08-30T17:49:22.733Z,1.17
2022-08-30T17:51:55.638Z,1.27
2022-08-30T17:54:26.849Z,1.40
2022-08-30T17:56:56.250Z,1.65
2022-08-30T17:59:25.620Z,1.35
2022-08-30T18:01:55.404Z,1.30
2022-08-30T18:04:24.824Z,1.25
2022-08-30T18:06:53.939Z,1.40
2022-08-30T18:09:22.155Z,1.63
2022-08-30T18:11:50.976Z,1.63
2022-08-30T18:14:18.845Z,1.25
2022-08-30T18:16:49.906Z,1.30
2022-08-30T18:19:27.186Z,1.75
2022-08-30T18:21:55.424Z,1.98
2022-08-30T18:24:24.238Z,1.65
2022-08-30T18:26:54.875Z,1.45
2022-08-30T18:29:28.899Z,1.47
2022-08-30T18:32:03.146Z,1.48
2022-08-30T18:34:30.837Z,1.13
2022-08-30T18:36:58.393Z,1.30
2022-08-30T18:39:26.333Z,1.40
2022-08-30T18:41:54.457Z,1.70
2022-08-30T18:44:28.418Z,1.40
2022-08-30T18:47:00.631Z,1.50
2022-08-30T18:49:32.106Z,1.52
2022-08-30T18:54:29.654Z,1.33
2022-08-30T18:56:57.544Z,1.50
2022-08-30T18:59:35.755Z,2.13
2022-08-30T19:02:11.795Z,1.13
2022-08-30T19:04:42.726Z,1.45
2022-08-30T19:07:13.218Z,1.77
2022-08-30T19:09:43.368Z,1.40
2022-08-30T19:12:13.810Z,1.40
2022-08-30T19:14:41.334Z,1.30
2022-08-30T19:17:09.395Z,1.63
2022-08-30T19:19:46.601Z,1.15
2022-08-30T19:22:19.468Z,1.45
2022-08-30T19:24:49.905Z,1.40
2022-08-30T19:27:21.557Z,1.53
2022-08-30T19:30:18.624Z,1.17
2022-08-30T19:32:49.365Z,1.40
2022-08-30T19:35:19.501Z,1.30
2022-08-30T19:37:47.046Z,1.60
2022-08-30T19:40:18.684Z,1.55
2022-08-30T19:42:48.773Z,1.67
2022-08-30T19:45:18.890Z,1.70
2022-08-30T19:47:50.469Z,1.42
2022-08-30T19:50:19.870Z,1.73
2022-08-30T19:52:53.684Z,1.65
2022-08-30T19:55:30.303Z,1.40
2022-08-30T19:57:59.110Z,1.42
2022-08-30T20:00:27.293Z,1.60
2022-08-30T20:03:01.373Z,1.92
2022-08-30T20:05:31.378Z,1.63
2022-08-30T20:08:00.001Z,1.70
2022-08-30T20:10:27.759Z,1.60
2022-08-30T20:12:55.519Z,1.60
2022-08-30T20:15:23.700Z,1.60
2022-08-30T20:18:05.235Z,1.25
2022-08-30T20:20:36.292Z,1.50
2022-08-30T20:23:06.076Z,1.50
2022-08-30T20:25:36.183Z,1.70
2022-08-30T20:28:04.878Z,1.60
2022-08-30T20:30:32.447Z,1.77
2022-08-30T20:33:09.170Z,1.55
2022-08-30T20:35:39.031Z,2.08
2022-08-30T20:38:11.160Z,1.45
2022-08-30T20:40:58.557Z,1.73
2022-08-30T20:43:29.105Z,1.60
2022-08-30T20:45:56.786Z,1.75
2022-08-30T20:48:28.691Z,1.70
2022-08-30T20:50:56.123Z,1.20
2022-08-30T20:53:23.593Z,1.58
2022-08-30T20:55:52.172Z,1.75
2022-08-30T20:58:19.828Z,1.83
2022-08-30T21:00:53.883Z,1.50
2022-08-30T21:03:32.827Z,1.70
2022-08-30T21:06:01.466Z,1.67
2022-08-30T21:08:29.078Z,1.80
2022-08-30T21:10:57.045Z,1.42
2022-08-30T21:13:24.830Z,1.75
2022-08-30T21:15:54.715Z,1.45
2022-08-30T21:18:25.805Z,1.50
2022-08-30T21:20:53.403Z,1.60
2022-08-30T21:23:20.960Z,1.70
2022-08-30T21:25:50.334Z,1.85
2022-08-30T21:28:18.249Z,1.40
2022-08-30T21:30:50.030Z,1.58
2022-08-30T21:33:17.463Z,1.85
2022-08-30T21:36:11.210Z,1.65
2022-08-30T21:38:38.785Z,1.58
2022-08-30T21:41:06.515Z,1.77
2022-08-30T21:43:34.075Z,1.80
2022-08-30T21:46:07.253Z,1.85
2022-08-30T21:48:37.670Z,1.80
2022-08-30T21:51:07.570Z,1.90
2022-08-30T21:53:37.333Z,1.95
2022-08-30T21:56:13.021Z,2.00
2022-08-30T21:58:43.404Z,1.98
2022-08-30T22:01:23.419Z,2.05
2022-08-30T22:03:57.305Z,2.10
2022-08-30T22:06:30.819Z,1.90
2022-08-30T22:09:02.433Z,1.80
2022-08-30T22:11:31.596Z,2.13
2022-08-30T22:13:59.313Z,2.10
2022-08-30T22:16:28.894Z,1.92
2022-08-30T22:18:56.621Z,2.05
2022-08-30T22:21:29.485Z,1.98
2022-08-30T22:23:57.297Z,2.10
2022-08-30T22:26:25.800Z,2.03
2022-08-30T22:28:54.426Z,1.90
2022-08-30T22:31:23.283Z,2.20
2022-08-30T22:33:52.974Z,2.00
2022-08-30T22:36:32.954Z,2.10
2022-08-30T22:39:03.179Z,2.08
2022-08-30T22:41:33.954Z,2.08
2022-08-30T22:44:03.757Z,2.35
2022-08-30T22:46:34.526Z,2.30
2022-08-30T22:49:10.870Z,2.35
2022-08-30T22:51:41.440Z,2.05
2022-08-30T22:54:09.902Z,2.20
2022-08-30T22:56:39.163Z,2.25
2022-08-30T22:59:07.472Z,2.10
2022-08-30T23:01:39.778Z,2.30
2022-08-30T23:04:10.666Z,2.58
2022-08-30T23:06:38.272Z,2.40
2022-08-30T23:09:07.372Z,2.42
2022-08-30T23:11:35.605Z,2.10
2022-08-30T23:14:05.995Z,2.40
2022-08-30T23:16:34.278Z,2.33
2022-08-30T23:19:04.818Z,2.40
2022-08-30T23:21:32.648Z,2.05
2022-08-30T23:24:20.082Z,2.30
2022-08-30T23:27:07.150Z,2.65
2022-08-30T23:29:54.906Z,2.45
2022-08-30T23:32:41.204Z,2.60
2022-08-30T23:35:31.707Z,2.42
2022-08-30T23:38:22.243Z,2.50
2022-08-30T23:41:08.313Z,2.63
2022-08-30T23:43:55.422Z,2.70
2022-08-30T23:46:42.357Z,2.88
2022-08-30T23:49:28.814Z,2.60
2022-08-30T23:52:15.076Z,2.42
2022-08-30T23:55:01.442Z,2.70
2022-08-30T23:57:47.483Z,2.33
